Navigator Spirit — C6WL4 — position and weather

sailwx.info

Track history (hours):
 
Tides and Currents Weather Stations Pressure Air Temp Water Temp Dewpoint Dewpoint Depression Visibility Wind Speed Wind Dir Waves Ship Positions

Navigator Spirit

Last reported at 2017-Aug-19 05:06 UTC. Time now 2017-Aug-20 01:56 UTC.
Position N 29°12' W 094°34'.

Length 241 m; draft 8.5 m.

Type: Tanker. MMSI: 309198000.

Date/timePositionNaut miles runAvg speedWind from/ knotsBaromVisibWave heightAir tempDewpointWater temp
2017-Aug-19 05:06N 29°12' W 094°34'12 0.4
2017-Aug-17 18:53N 29°21' W 094°44'3 6.6
2017-Aug-17 18:30N 29°21' W 094°47'612.2
2017-Aug-17 17:59N 29°26' W 094°50'511.6
2017-Aug-17 17:31N 29°31' W 094°53'611.2
2017-Aug-17 17:00N 29°36' W 094°57'510.7
2017-Aug-17 16:31N 29°41' W 094°59'4 7.1
2017-Aug-17 16:01N 29°44' W 095°01'0 0.0
2017-Aug-16 01:17N 29°44' W 095°01'0 0.7
2017-Aug-16 01:00N 29°44' W 095°01'1 2.8
2017-Aug-16 00:30N 29°42' W 095°01'3 6.5
2017-Aug-16 00:00N 29°40' W 094°58'4 8.7
2017-Aug-15 23:30N 29°36' W 094°57'5 9.3
2017-Aug-15 23:00N 29°32' W 094°54'4 8.8
2017-Aug-15 22:30N 29°28' W 094°51'4 8.3
2017-Aug-15 22:00N 29°24' W 094°49'4 7.6
2017-Aug-15 21:28N 29°21' W 094°47'  
2017-Aug-12 07:24N 29°12' W 094°37'0 0.0
2017-Aug-12 06:57N 29°12' W 094°37'0 0.0
2017-Aug-12 06:12N 29°12' W 094°37'0 0.0
2017-Aug-12 05:57N 29°12' W 094°37'0 0.0
2017-Aug-12 05:06N 29°12' W 094°37'0 0.0
2017-Aug-12 04:15N 29°12' W 094°37'0 0.0
2017-Aug-12 03:33N 29°12' W 094°37'0 0.1
2017-Aug-12 03:30N 29°12' W 094°37'  
Track history (hours):
 
Tides and Currents Weather Stations Pressure Air Temp Water Temp Dewpoint Dewpoint Depression Visibility Wind Speed Wind Dir Waves Ship Positions

Navigator Spirit

Last reported at 2017-Aug-19 05:06 UTC. Time now 2017-Aug-20 01:56 UTC.
Position N 29°12' W 094°34'.

Length 241 m; draft 8.5 m.

Type: Tanker. MMSI: 309198000.

Date/timePositionNaut miles runAvg speedWind from/ knotsBaromVisibWave heightAir tempDewpointWater temp
2017-Aug-19 05:06N 29°12' W 094°34'12 0.4
2017-Aug-17 18:53N 29°21' W 094°44'3 6.6
2017-Aug-17 18:30N 29°21' W 094°47'612.2
2017-Aug-17 17:59N 29°26' W 094°50'511.6
2017-Aug-17 17:31N 29°31' W 094°53'611.2
2017-Aug-17 17:00N 29°36' W 094°57'510.7
2017-Aug-17 16:31N 29°41' W 094°59'4 7.1
2017-Aug-17 16:01N 29°44' W 095°01'0 0.0
2017-Aug-16 01:17N 29°44' W 095°01'0 0.7
2017-Aug-16 01:00N 29°44' W 095°01'1 2.8
2017-Aug-16 00:30N 29°42' W 095°01'3 6.5
2017-Aug-16 00:00N 29°40' W 094°58'4 8.7
2017-Aug-15 23:30N 29°36' W 094°57'5 9.3
2017-Aug-15 23:00N 29°32' W 094°54'4 8.8
2017-Aug-15 22:30N 29°28' W 094°51'4 8.3
2017-Aug-15 22:00N 29°24' W 094°49'4 7.6
2017-Aug-15 21:28N 29°21' W 094°47'  
2017-Aug-12 07:24N 29°12' W 094°37'0 0.0
2017-Aug-12 06:57N 29°12' W 094°37'0 0.0
2017-Aug-12 06:12N 29°12' W 094°37'0 0.0
2017-Aug-12 05:57N 29°12' W 094°37'0 0.0
2017-Aug-12 05:06N 29°12' W 094°37'0 0.0
2017-Aug-12 04:15N 29°12' W 094°37'0 0.0
2017-Aug-12 03:33N 29°12' W 094°37'0 0.1
2017-Aug-12 03:30N 29°12' W 094°37'  

Dump ship's entire track history